Time;durP1;ratioP1;P1;durP2;ratioP2;P2;SDS_P1;SDS_P2;PMS_P1;PMS_P2;Temp;Humidity;BMP_temperature;BMP_pressure;BME280_temperature;BME280_humidity;BME280_pressure;Samples;Min_cycle;Max_cycle;Signal;HPM_P1;HPM_P2
2022/02/14 00:01:05;;;;;;;8.43;5.18;;;9.60;99.90;;;;;;6244031;22;20042;-83
2022/02/14 00:03:32;;;;;;;7.10;4.47;;;9.60;99.90;;;;;;6219579;22;20016;-85
2022/02/14 00:06:01;;;;;;;9.23;4.90;;;9.70;99.90;;;;;;6194150;22;20019;-83
2022/02/14 00:08:26;;;;;;;9.43;5.68;;;9.70;99.90;;;;;;6218749;22;20019;-82
2022/02/14 00:10:52;;;;;;;12.48;4.68;;;9.70;99.90;;;;;;6244179;22;20034;-82
2022/02/14 00:13:18;;;;;;;11.52;5.20;;;9.70;99.90;;;;;;6169776;22;20026;-82
2022/02/14 00:15:44;;;;;;;9.40;5.22;;;9.70;99.90;;;;;;6219147;22;20341;-82
2022/02/14 00:18:10;;;;;;;9.82;5.10;;;9.70;99.90;;;;;;6219237;22;20046;-81
2022/02/14 00:20:36;;;;;;;8.20;5.03;;;9.70;99.90;;;;;;6193743;22;20024;-82
2022/02/14 00:23:02;;;;;;;10.38;4.95;;;9.70;99.90;;;;;;6243922;22;20016;-83
2022/02/14 00:25:31;;;;;;;9.07;5.03;;;9.60;99.90;;;;;;6218101;22;20027;-81
2022/02/14 00:27:57;;;;;;;10.45;4.95;;;9.60;99.90;;;;;;6169140;22;20027;-83
2022/02/14 00:30:24;;;;;;;16.60;5.70;;;9.60;99.90;;;;;;6193540;22;20328;-83
2022/02/14 00:32:50;;;;;;;11.40;5.05;;;9.60;99.90;;;;;;6193869;22;20023;-82
2022/02/14 00:35:16;;;;;;;9.45;5.18;;;9.60;99.90;;;;;;6193565;22;20022;-81
2022/02/14 00:37:42;;;;;;;8.88;4.55;;;9.60;99.90;;;;;;6218189;22;20024;-81
2022/02/14 00:40:09;;;;;;;10.02;5.25;;;9.60;99.90;;;;;;6194130;22;20041;-81
2022/02/14 00:42:35;;;;;;;10.30;4.40;;;9.60;99.90;;;;;;6193397;22;20440;-81
2022/02/14 00:45:01;;;;;;;8.20;5.25;;;9.60;99.90;;;;;;6193787;22;20679;-83
2022/02/14 00:47:27;;;;;;;10.70;4.90;;;9.60;99.90;;;;;;6219469;22;20011;-82
2022/02/14 00:49:53;;;;;;;9.48;4.50;;;9.60;99.90;;;;;;6218642;22;20015;-82
2022/02/14 00:52:19;;;;;;;11.38;4.60;;;9.60;99.90;;;;;;6218894;22;20464;-82
2022/02/14 00:54:45;;;;;;;11.55;4.82;;;9.70;99.90;;;;;;6217961;22;20029;-79
2022/02/14 00:57:11;;;;;;;8.63;4.70;;;9.70;99.90;;;;;;6218931;22;20012;-82
2022/02/14 00:59:37;;;;;;;10.38;4.65;;;9.70;99.90;;;;;;6193750;22;20054;-83
2022/02/14 01:02:03;;;;;;;11.25;5.05;;;9.70;99.90;;;;;;6218507;22;20015;-82
2022/02/14 01:04:29;;;;;;;10.23;4.90;;;9.70;99.90;;;;;;6242144;22;20015;-80
2022/02/14 01:06:55;;;;;;;9.27;4.90;;;9.80;99.90;;;;;;6243813;22;20608;-82
2022/02/14 01:09:21;;;;;;;10.70;4.75;;;9.80;99.90;;;;;;6218616;22;20012;-82
2022/02/14 01:11:47;;;;;;;7.18;4.40;;;9.80;99.90;;;;;;6219114;22;20131;-82
2022/02/14 01:14:13;;;;;;;8.13;4.70;;;9.70;99.90;;;;;;6219232;22;20023;-81
2022/02/14 01:16:39;;;;;;;11.27;4.85;;;9.80;99.90;;;;;;6168953;22;20538;-82
2022/02/14 01:19:05;;;;;;;9.43;5.05;;;9.70;99.90;;;;;;6192852;22;20019;-81
2022/02/14 01:21:30;;;;;;;7.55;4.28;;;9.70;99.90;;;;;;6193324;22;20019;-82
2022/02/14 01:23:56;;;;;;;11.73;5.15;;;9.70;99.90;;;;;;6192714;22;20071;-82
2022/02/14 01:26:22;;;;;;;13.10;4.93;;;9.70;99.90;;;;;;6243511;22;20022;-82
2022/02/14 01:28:48;;;;;;;11.88;5.32;;;9.60;99.90;;;;;;6218273;22;20032;-80
2022/02/14 01:31:14;;;;;;;10.95;4.95;;;9.60;99.90;;;;;;6193458;22;20045;-82
2022/02/14 01:33:39;;;;;;;8.48;5.07;;;9.50;99.90;;;;;;6243448;22;20444;-81
2022/02/14 01:36:05;;;;;;;10.80;4.68;;;9.50;99.90;;;;;;6217473;22;20321;-82
2022/02/14 01:38:31;;;;;;;11.90;5.05;;;9.50;99.90;;;;;;6217425;22;20077;-83
2022/02/14 01:41:00;;;;;;;11.85;4.63;;;9.50;99.90;;;;;;6213464;23;20016;-81
2022/02/14 01:43:26;;;;;;;9.02;4.82;;;9.50;99.90;;;;;;6213120;23;20070;-84
2022/02/14 01:45:52;;;;;;;7.13;4.68;;;9.50;99.90;;;;;;6213208;23;20024;-79
2022/02/14 01:48:18;;;;;;;10.88;4.53;;;9.60;99.90;;;;;;6213399;23;20058;-83
2022/02/14 01:50:45;;;;;;;8.60;5.00;;;9.60;99.90;;;;;;6187305;23;20059;-82
2022/02/14 01:53:11;;;;;;;8.18;4.80;;;9.60;99.90;;;;;;6213324;23;20073;-84
2022/02/14 01:55:37;;;;;;;9.85;4.47;;;9.60;99.90;;;;;;6213202;23;20445;-82
2022/02/14 01:58:04;;;;;;;9.57;4.68;;;9.60;99.90;;;;;;6213173;23;20020;-82
2022/02/14 02:00:30;;;;;;;11.70;5.40;;;9.60;99.90;;;;;;6237540;23;20384;-82
2022/02/14 02:03:00;;;;;;;9.45;5.10;;;9.60;99.90;;;;;;6213276;23;20035;-83
2022/02/14 02:05:26;;;;;;;9.60;4.73;;;9.60;99.90;;;;;;6238227;23;20012;-82
2022/02/14 02:07:52;;;;;;;11.50;4.60;;;9.60;99.90;;;;;;6212632;23;20520;-82
2022/02/14 02:10:19;;;;;;;11.35;5.55;;;9.70;99.90;;;;;;6213083;23;20024;-81
2022/02/14 02:12:56;;;;;;;9.77;4.32;;;9.70;99.90;;;;;;6212688;23;20027;-81
2022/02/14 02:15:22;;;;;;;11.82;5.15;;;9.70;99.90;;;;;;6238440;23;20027;-75
2022/02/14 02:17:49;;;;;;;8.50;4.75;;;9.70;99.90;;;;;;6212986;23;20030;-82
2022/02/14 02:20:16;;;;;;;10.07;4.85;;;9.70;99.90;;;;;;6237673;23;20210;-82
2022/02/14 02:22:44;;;;;;;11.57;4.90;;;9.70;99.90;;;;;;6236910;23;20016;-82
2022/02/14 02:25:10;;;;;;;10.25;5.18;;;9.70;99.90;;;;;;6237952;23;20016;-84
2022/02/14 02:27:36;;;;;;;9.13;4.75;;;9.60;99.90;;;;;;6213754;23;20090;-81
2022/02/14 02:30:06;;;;;;;13.77;5.45;;;9.60;99.90;;;;;;6236268;23;20012;-82
2022/02/14 02:32:33;;;;;;;10.93;5.05;;;9.60;99.90;;;;;;6238887;23;20096;-81
2022/02/14 02:35:02;;;;;;;10.68;4.45;;;9.60;99.90;;;;;;6238286;23;20449;-82
2022/02/14 02:37:28;;;;;;;8.70;4.53;;;9.60;99.90;;;;;;6212818;23;20027;-83
2022/02/14 02:39:56;;;;;;;9.30;4.47;;;9.60;99.90;;;;;;6212015;23;20012;-82
2022/02/14 02:42:25;;;;;;;11.48;5.15;;;9.60;99.90;;;;;;6212697;23;20027;-82
2022/02/14 02:44:52;;;;;;;9.18;4.30;;;9.60;99.90;;;;;;6237290;23;20020;-82
2022/02/14 02:47:20;;;;;;;8.18;4.13;;;9.60;99.90;;;;;;6238094;23;20081;-82
2022/02/14 02:49:46;;;;;;;10.30;4.53;;;9.60;99.90;;;;;;6212518;23;20051;-81
2022/02/14 02:52:13;;;;;;;10.02;4.80;;;9.60;99.90;;;;;;6211631;23;20319;-82
2022/02/14 02:54:39;;;;;;;9.60;4.57;;;9.60;99.90;;;;;;6211935;23;20388;-81
2022/02/14 02:57:05;;;;;;;10.05;4.57;;;9.60;99.90;;;;;;6238046;23;20833;-80
2022/02/14 02:59:35;;;;;;;9.82;4.47;;;9.50;99.90;;;;;;6211865;23;20016;-83
2022/02/14 03:02:02;;;;;;;7.75;4.35;;;9.60;99.90;;;;;;6236521;23;20341;-79
2022/02/14 03:04:28;;;;;;;7.97;4.53;;;9.60;99.90;;;;;;6236747;23;20388;-80
2022/02/14 03:06:55;;;;;;;7.38;4.38;;;9.50;99.90;;;;;;6212509;23;20115;-83
2022/02/14 03:09:21;;;;;;;8.25;4.53;;;9.50;99.90;;;;;;6212680;23;20051;-82
2022/02/14 03:11:47;;;;;;;7.53;4.00;;;9.60;99.90;;;;;;6213806;23;20027;-82
2022/02/14 03:14:14;;;;;;;6.30;3.60;;;9.50;99.90;;;;;;6214197;23;20019;-82
2022/02/14 03:16:40;;;;;;;9.63;3.90;;;9.50;99.90;;;;;;6213957;23;20445;-81
2022/02/14 03:19:06;;;;;;;10.32;4.55;;;9.60;99.90;;;;;;6239396;23;20034;-79
2022/02/14 03:21:33;;;;;;;10.88;4.20;;;9.50;99.90;;;;;;6213569;23;20023;-82
2022/02/14 03:24:03;;;;;;;7.45;4.25;;;9.50;99.90;;;;;;6213155;23;20080;-81
2022/02/14 03:26:29;;;;;;;8.82;4.40;;;9.60;99.90;;;;;;6213505;23;20012;-83
2022/02/14 03:28:56;;;;;;;8.55;4.53;;;9.60;99.90;;;;;;6213672;23;20016;-81
2022/02/14 03:31:23;;;;;;;10.00;4.40;;;9.50;99.90;;;;;;6238957;23;20349;-81
2022/02/14 03:33:49;;;;;;;7.82;3.70;;;9.60;99.90;;;;;;6212350;23;20020;-79
2022/02/14 03:36:17;;;;;;;9.85;4.00;;;9.60;99.90;;;;;;6238235;23;20408;-81
2022/02/14 03:38:45;;;;;;;8.20;3.72;;;9.60;99.90;;;;;;6238913;23;20016;-80
2022/02/14 03:41:11;;;;;;;9.80;4.00;;;9.60;99.90;;;;;;6216049;22;20024;-81
2022/02/14 03:43:37;;;;;;;10.27;3.97;;;9.60;99.90;;;;;;6193628;22;20023;-80
2022/02/14 03:46:07;;;;;;;10.85;4.18;;;9.60;99.90;;;;;;6219195;22;20090;-81
2022/02/14 03:48:33;;;;;;;9.13;3.80;;;9.70;99.90;;;;;;6218575;22;20020;-77
2022/02/14 03:51:00;;;;;;;10.93;4.03;;;9.60;99.90;;;;;;6242457;22;20023;-83
2022/02/14 03:53:26;;;;;;;7.13;3.85;;;9.60;99.90;;;;;;6193251;22;20031;-80
2022/02/14 03:55:52;;;;;;;7.85;3.95;;;9.70;99.90;;;;;;6218314;22;20022;-82
2022/02/14 03:58:18;;;;;;;8.65;4.63;;;9.70;99.90;;;;;;6243869;22;20087;-81
2022/02/14 04:00:45;;;;;;;8.95;4.00;;;9.60;99.90;;;;;;6217322;22;20082;-81
2022/02/14 04:03:10;;;;;;;13.55;3.92;;;9.60;99.90;;;;;;6217856;22;20015;-83
2022/02/14 04:05:36;;;;;;;10.95;4.63;;;9.70;99.90;;;;;;6168544;22;20015;-82
2022/02/14 04:08:03;;;;;;;8.98;3.90;;;9.70;99.90;;;;;;6169153;22;20047;-82
2022/02/14 04:10:29;;;;;;;8.40;4.25;;;9.70;99.90;;;;;;6243368;22;20012;-82
2022/02/14 04:12:55;;;;;;;7.60;3.80;;;9.60;99.90;;;;;;6244625;22;20114;-83
2022/02/14 04:15:21;;;;;;;11.55;3.80;;;9.70;99.90;;;;;;6244128;22;20090;-82
2022/02/14 04:17:47;;;;;;;10.13;4.15;;;9.60;99.90;;;;;;6244460;22;20054;-83
2022/02/14 04:20:14;;;;;;;10.93;4.22;;;9.70;99.90;;;;;;6244110;22;20020;-82
2022/02/14 04:22:40;;;;;;;8.98;3.95;;;9.80;99.90;;;;;;6242704;22;20011;-82
2022/02/14 04:25:08;;;;;;;7.35;3.97;;;9.70;99.90;;;;;;6217759;22;20028;-80
2022/02/14 04:27:33;;;;;;;9.40;4.10;;;9.60;99.90;;;;;;6193007;22;20526;-82
2022/02/14 04:29:59;;;;;;;10.07;4.95;;;9.60;99.90;;;;;;6218496;22;20020;-80
2022/02/14 04:32:28;;;;;;;12.82;3.70;;;9.70;99.90;;;;;;6217667;22;20016;-82
2022/02/14 04:34:54;;;;;;;10.18;4.00;;;9.70;99.90;;;;;;6217539;22;20496;-82
2022/02/14 04:37:20;;;;;;;9.40;3.97;;;9.70;99.90;;;;;;6217785;22;20103;-82
2022/02/14 04:39:46;;;;;;;9.38;3.75;;;9.70;99.90;;;;;;6218137;22;20452;-80
2022/02/14 04:42:12;;;;;;;10.02;3.80;;;9.70;99.90;;;;;;6237408;23;20462;-81
2022/02/14 04:44:37;;;;;;;7.95;3.40;;;9.70;99.90;;;;;;6212258;23;20024;-83
2022/02/14 04:47:04;;;;;;;7.45;3.78;;;9.70;99.90;;;;;;6238363;23;20357;-78
2022/02/14 04:49:30;;;;;;;12.50;4.00;;;9.70;99.90;;;;;;6237495;23;20016;-81
2022/02/14 04:51:59;;;;;;;8.85;3.42;;;9.80;99.90;;;;;;6212268;23;20021;-81
2022/02/14 04:54:25;;;;;;;8.25;3.38;;;9.80;99.90;;;;;;6237607;23;20016;-81
2022/02/14 04:56:51;;;;;;;13.32;4.55;;;9.80;99.90;;;;;;6213475;23;20040;-83
2022/02/14 04:59:17;;;;;;;7.22;3.60;;;9.80;99.90;;;;;;6187800;23;20081;-80
2022/02/14 05:01:43;;;;;;;8.52;3.65;;;9.90;99.90;;;;;;6236777;23;20020;-79
2022/02/14 05:04:09;;;;;;;11.10;3.90;;;9.90;99.90;;;;;;6238684;23;20016;-82
2022/02/14 05:06:35;;;;;;;7.68;3.50;;;10.00;99.90;;;;;;6238128;23;20047;-82
2022/02/14 05:09:01;;;;;;;7.57;3.28;;;10.00;99.90;;;;;;6188982;23;20349;-83
2022/02/14 05:11:30;;;;;;;6.57;3.30;;;10.00;99.90;;;;;;6238072;23;20095;-82
2022/02/14 05:13:56;;;;;;;8.77;3.17;;;10.00;99.90;;;;;;6239409;23;20020;-82
2022/02/14 05:16:23;;;;;;;7.07;3.42;;;10.00;99.90;;;;;;6238974;23;20027;-83
2022/02/14 05:18:50;;;;;;;7.57;3.60;;;10.00;99.90;;;;;;6213624;23;20074;-82
2022/02/14 05:21:16;;;;;;;8.00;3.47;;;10.10;99.90;;;;;;6187990;23;20020;-82
2022/02/14 05:23:42;;;;;;;7.55;3.22;;;10.10;99.90;;;;;;6238170;23;20319;-84
2022/02/14 05:26:09;;;;;;;8.00;3.50;;;10.10;99.90;;;;;;6239101;23;20102;-81
2022/02/14 05:28:35;;;;;;;7.80;3.55;;;10.10;99.90;;;;;;6238683;23;20330;-80
2022/02/14 05:31:00;;;;;;;7.00;3.38;;;10.10;99.90;;;;;;6214258;23;20027;-81
2022/02/14 05:33:26;;;;;;;8.23;3.65;;;10.10;99.90;;;;;;6212855;23;20461;-81
2022/02/14 05:35:52;;;;;;;6.47;3.33;;;10.10;99.90;;;;;;6214492;23;20023;-82
2022/02/14 05:38:19;;;;;;;10.15;3.92;;;10.10;99.90;;;;;;6214127;23;20150;-81
2022/02/14 05:40:45;;;;;;;9.52;3.72;;;10.10;99.90;;;;;;6217489;22;20016;-82
2022/02/14 05:43:10;;;;;;;8.40;3.90;;;10.10;99.90;;;;;;6194211;22;20637;-83
2022/02/14 05:45:36;;;;;;;6.95;3.33;;;10.10;99.90;;;;;;6168815;22;20016;-82
2022/02/14 05:48:02;;;;;;;6.30;3.40;;;10.20;99.90;;;;;;6218778;22;20015;-80
2022/02/14 05:50:28;;;;;;;8.68;3.17;;;10.20;99.90;;;;;;6191920;22;20074;-81
2022/02/14 05:52:54;;;;;;;7.60;3.30;;;10.20;99.90;;;;;;6217542;22;20015;-83
2022/02/14 05:55:20;;;;;;;10.90;3.75;;;10.20;99.90;;;;;;6191941;22;20019;-80
2022/02/14 05:57:46;;;;;;;8.32;3.30;;;10.10;99.90;;;;;;6192166;22;20046;-80
2022/02/14 06:00:12;;;;;;;8.27;3.90;;;10.10;99.90;;;;;;6192215;22;20023;-80
2022/02/14 06:02:38;;;;;;;9.38;3.15;;;10.20;99.90;;;;;;6188660;22;20020;-81
2022/02/14 06:05:04;;;;;;;7.43;3.20;;;10.20;99.90;;;;;;6213254;22;20377;-82
2022/02/14 06:07:31;;;;;;;10.55;3.67;;;10.10;99.90;;;;;;6212749;22;20034;-81
2022/02/14 06:09:58;;;;;;;9.52;3.20;;;10.10;99.90;;;;;;6216894;22;20019;-81
2022/02/14 06:12:24;;;;;;;7.93;3.20;;;10.10;99.90;;;;;;6216966;22;20356;-82
2022/02/14 06:14:50;;;;;;;8.68;3.00;;;10.10;99.90;;;;;;6216398;22;20095;-81
2022/02/14 06:17:15;;;;;;;8.05;3.15;;;10.10;99.90;;;;;;6216856;22;20301;-82
2022/02/14 06:19:42;;;;;;;10.45;3.22;;;10.10;99.90;;;;;;6192138;22;20024;-81
2022/02/14 06:22:08;;;;;;;10.00;3.42;;;10.10;99.90;;;;;;6217285;22;20016;-81
2022/02/14 06:24:34;;;;;;;5.43;2.97;;;10.10;99.90;;;;;;6215821;22;20349;-82
2022/02/14 06:26:59;;;;;;;6.65;3.40;;;10.20;99.90;;;;;;6217729;22;20023;-82
2022/02/14 06:29:26;;;;;;;5.20;2.80;;;10.20;99.90;;;;;;6192343;22;20038;-83
2022/02/14 06:31:51;;;;;;;6.82;2.95;;;10.20;99.90;;;;;;6242090;22;20022;-82
2022/02/14 06:34:17;;;;;;;6.10;3.03;;;10.20;99.90;;;;;;6191441;22;20372;-81
2022/02/14 06:36:43;;;;;;;7.38;3.10;;;10.20;99.90;;;;;;6240977;22;20020;-81
2022/02/14 06:39:09;;;;;;;5.53;2.95;;;10.20;99.90;;;;;;6217414;22;20019;-81
2022/02/14 06:41:35;;;;;;;6.70;3.10;;;10.20;99.90;;;;;;6241757;22;20042;-80
2022/02/14 06:44:01;;;;;;;8.75;2.53;;;10.20;99.90;;;;;;6191618;22;20019;-82
2022/02/14 06:46:27;;;;;;;8.32;2.83;;;10.20;99.90;;;;;;6164596;22;20016;-82
2022/02/14 06:48:53;;;;;;;11.30;3.33;;;10.20;99.90;;;;;;6215305;22;20020;-84
2022/02/14 06:51:19;;;;;;;7.65;2.85;;;10.20;99.90;;;;;;6185497;22;20019;-83
2022/02/14 06:53:46;;;;;;;8.43;2.70;;;10.30;99.90;;;;;;6207881;22;20242;-85
2022/02/14 06:56:12;;;;;;;10.18;2.92;;;10.30;99.90;;;;;;6188006;22;20070;-81
2022/02/14 06:58:40;;;;;;;7.10;3.20;;;10.20;99.90;;;;;;6213465;22;20043;-81
2022/02/14 07:01:07;;;;;;;7.60;3.03;;;10.20;99.90;;;;;;6216200;22;20042;-81
2022/02/14 07:03:37;;;;;;;8.27;3.40;;;10.30;99.90;;;;;;6216143;22;20073;-80
2022/02/14 07:06:04;;;;;;;7.50;3.00;;;10.30;99.90;;;;;;6239362;22;20669;-82
2022/02/14 07:08:31;;;;;;;6.15;2.85;;;10.30;99.90;;;;;;6216804;22;20094;-83
2022/02/14 07:10:58;;;;;;;7.70;3.05;;;10.30;99.90;;;;;;6217481;22;20024;-82
2022/02/14 07:13:24;;;;;;;6.68;3.22;;;10.30;99.90;;;;;;6192574;22;20026;-80
2022/02/14 07:15:50;;;;;;;5.22;2.72;;;10.30;99.90;;;;;;6216464;22;20074;-82
2022/02/14 07:18:19;;;;;;;6.15;2.53;;;10.30;99.90;;;;;;6217387;22;20026;-76
2022/02/14 07:20:45;;;;;;;6.80;2.75;;;10.30;99.90;;;;;;6190722;22;20016;-82
2022/02/14 07:23:11;;;;;;;6.25;3.15;;;10.40;99.90;;;;;;6216566;22;20047;-82
2022/02/14 07:25:37;;;;;;;6.32;3.33;;;10.40;99.90;;;;;;6242123;22;20082;-85
2022/02/14 07:28:04;;;;;;;8.30;3.03;;;10.40;99.90;;;;;;6191120;22;20015;-83
2022/02/14 07:30:33;;;;;;;9.57;2.90;;;10.40;99.90;;;;;;6216558;22;20402;-82
2022/02/14 07:32:59;;;;;;;6.40;2.90;;;10.40;99.90;;;;;;6190947;22;20047;-82
2022/02/14 07:35:25;;;;;;;6.15;2.70;;;10.40;99.90;;;;;;6216344;22;20038;-83
2022/02/14 07:37:51;;;;;;;5.88;2.80;;;10.40;99.90;;;;;;6216250;22;20020;-81
2022/02/14 07:40:17;;;;;;;4.75;2.67;;;10.40;99.90;;;;;;6191249;22;20084;-82
2022/02/14 07:42:44;;;;;;;5.68;2.83;;;10.40;99.90;;;;;;6215239;22;20026;-81
2022/02/14 07:45:11;;;;;;;6.35;2.92;;;10.40;99.90;;;;;;6190493;22;20023;-81
2022/02/14 07:47:37;;;;;;;6.72;2.80;;;10.40;99.90;;;;;;6216346;22;20110;-79
2022/02/14 07:50:11;;;;;;;5.32;2.65;;;10.40;99.90;;;;;;6191327;22;20020;-82
2022/02/14 07:52:37;;;;;;;7.65;2.83;;;10.40;99.90;;;;;;6239451;22;20451;-81
2022/02/14 07:55:04;;;;;;;6.03;2.88;;;10.30;99.90;;;;;;6216215;22;20012;-82
2022/02/14 07:57:31;;;;;;;6.40;2.75;;;10.40;99.90;;;;;;6217207;22;20043;-82
2022/02/14 08:00:01;;;;;;;6.60;2.70;;;10.40;99.90;;;;;;6194198;22;20629;-82
2022/02/14 08:02:30;;;;;;;6.80;2.70;;;10.40;99.90;;;;;;6194037;22;20077;-82
2022/02/14 08:04:57;;;;;;;8.13;3.10;;;10.40;99.90;;;;;;6217604;22;20023;-81
2022/02/14 08:07:22;;;;;;;5.38;2.60;;;10.40;99.90;;;;;;6193783;22;20019;-81
2022/02/14 08:09:48;;;;;;;9.27;2.78;;;10.40;99.90;;;;;;6218217;22;20034;-81
2022/02/14 08:12:14;;;;;;;5.40;2.85;;;10.30;99.90;;;;;;6168406;22;20055;-82
2022/02/14 08:14:41;;;;;;;6.18;3.83;;;10.30;99.90;;;;;;6193478;22;20047;-82
2022/02/14 08:17:07;;;;;;;7.10;3.42;;;10.30;99.90;;;;;;6219013;22;20063;-82
2022/02/14 08:19:33;;;;;;;5.90;2.70;;;10.30;99.90;;;;;;6216545;22;20011;-81
2022/02/14 08:21:59;;;;;;;5.85;3.00;;;10.30;99.90;;;;;;6190968;22;20015;-82
2022/02/14 08:24:31;;;;;;;6.47;2.58;;;10.30;99.90;;;;;;6191738;22;20012;-80
2022/02/14 08:26:58;;;;;;;7.45;2.78;;;10.30;99.90;;;;;;6192876;22;20353;-80
2022/02/14 08:29:23;;;;;;;6.20;3.25;;;10.30;99.90;;;;;;6192610;22;20441;-82
2022/02/14 08:31:49;;;;;;;7.15;2.92;;;10.30;99.90;;;;;;6189398;22;20214;-81
2022/02/14 08:34:15;;;;;;;7.80;3.38;;;10.30;99.90;;;;;;6191575;22;20019;-81
2022/02/14 08:36:43;;;;;;;6.95;2.85;;;10.30;99.90;;;;;;6217842;22;20352;-82
2022/02/14 08:39:10;;;;;;;7.38;3.22;;;10.20;99.90;;;;;;6218073;22;20057;-80
2022/02/14 08:41:36;;;;;;;5.45;2.90;;;10.20;99.90;;;;;;6217642;22;20030;-81
2022/02/14 08:44:02;;;;;;;7.57;2.95;;;10.20;99.90;;;;;;6217813;22;20019;-82
2022/02/14 08:46:28;;;;;;;5.75;2.75;;;10.20;99.90;;;;;;6218926;22;20094;-82
2022/02/14 08:48:54;;;;;;;6.85;3.10;;;10.20;99.90;;;;;;6219422;22;20415;-81
2022/02/14 08:51:21;;;;;;;5.57;2.85;;;10.20;99.90;;;;;;6219091;22;20016;-82
2022/02/14 08:53:49;;;;;;;8.45;3.10;;;10.30;99.90;;;;;;6243808;22;20016;-81
2022/02/14 08:56:15;;;;;;;7.90;2.90;;;10.30;99.90;;;;;;6219860;22;20015;-82
2022/02/14 08:58:42;;;;;;;7.68;2.97;;;10.20;99.90;;;;;;6193063;22;20016;-81
2022/02/14 09:01:09;;;;;;;5.15;2.80;;;10.20;99.90;;;;;;6217299;22;20089;-81
2022/02/14 09:03:35;;;;;;;8.02;3.00;;;10.20;99.90;;;;;;6192842;22;20026;-82
2022/02/14 09:06:02;;;;;;;7.35;3.40;;;10.10;99.90;;;;;;6242610;22;20047;-82
2022/02/14 09:08:30;;;;;;;6.00;3.15;;;10.10;99.90;;;;;;6242755;22;20209;-81
2022/02/14 09:10:59;;;;;;;3.90;2.83;;;10.00;99.90;;;;;;6217539;22;20531;-81
2022/02/14 09:13:25;;;;;;;6.45;3.42;;;9.90;99.90;;;;;;6216840;22;20410;-81
2022/02/14 09:15:51;;;;;;;7.00;3.20;;;9.70;99.90;;;;;;6216248;22;20452;-80
2022/02/14 09:18:17;;;;;;;6.05;3.50;;;9.70;99.90;;;;;;6217193;22;20030;-79
2022/02/14 09:20:46;;;;;;;7.50;3.67;;;9.50;99.90;;;;;;6216566;22;20015;-79
2022/02/14 09:23:13;;;;;;;8.00;4.20;;;9.40;99.90;;;;;;6216883;22;20016;-78
2022/02/14 09:25:39;;;;;;;5.80;4.45;;;9.30;99.90;;;;;;6191061;22;20535;-79
2022/02/14 09:28:06;;;;;;;8.10;5.82;;;9.20;99.90;;;;;;6166356;22;20019;-78
2022/02/14 09:30:32;;;;;;;7.07;6.20;;;9.10;99.90;;;;;;6217124;22;20090;-78
2022/02/14 09:32:59;;;;;;;8.45;6.72;;;9.00;99.90;;;;;;6216970;22;20070;-76
2022/02/14 09:35:28;;;;;;;8.40;7.60;;;9.00;99.90;;;;;;6217473;22;20107;-78
2022/02/14 09:37:59;;;;;;;9.82;8.60;;;9.00;99.90;;;;;;6167799;22;20499;-78
2022/02/14 09:40:27;;;;;;;9.93;8.48;;;8.90;99.90;;;;;;6216859;22;20460;-79
2022/02/14 09:42:55;;;;;;;11.68;9.73;;;8.90;99.90;;;;;;6192474;22;20020;-78
2022/02/14 09:45:25;;;;;;;11.38;9.23;;;8.90;99.90;;;;;;6217483;22;20051;-80
2022/02/14 09:47:54;;;;;;;13.63;10.27;;;8.90;99.90;;;;;;6218804;22;20020;-79
2022/02/14 09:50:21;;;;;;;10.32;9.00;;;9.00;99.90;;;;;;6217917;22;20030;-79
2022/02/14 09:52:50;;;;;;;8.90;8.00;;;9.00;99.90;;;;;;6243125;22;20022;-79
2022/02/14 09:55:17;;;;;;;8.95;8.05;;;9.10;99.90;;;;;;6217485;22;20099;-80
2022/02/14 09:57:43;;;;;;;7.80;7.07;;;9.10;99.90;;;;;;6167461;22;20023;-79
2022/02/14 10:00:09;;;;;;;8.32;7.47;;;9.20;99.90;;;;;;6192550;22;20019;-80
2022/02/14 10:02:36;;;;;;;7.93;7.20;;;9.20;99.90;;;;;;6242775;22;20012;-78
2022/02/14 10:05:21;;;;;;;9.05;7.75;;;9.30;99.90;;;;;;6217295;22;20015;-79
2022/02/14 10:07:52;;;;;;;8.27;7.43;;;9.30;99.90;;;;;;6218728;22;20024;-80
2022/02/14 10:10:20;;;;;;;8.40;7.63;;;9.40;99.90;;;;;;6242128;22;20023;-81
2022/02/14 10:12:59;;;;;;;8.98;8.07;;;9.40;99.90;;;;;;6218311;22;20012;-79
2022/02/14 10:15:27;;;;;;;8.40;7.53;;;9.40;99.90;;;;;;6193644;22;20457;-79
2022/02/14 10:18:00;;;;;;;8.10;7.20;;;9.30;99.90;;;;;;6217563;22;20158;-80
2022/02/14 10:20:30;;;;;;;8.27;6.80;;;9.40;99.90;;;;;;6217196;22;20020;-78
2022/02/14 10:23:00;;;;;;;9.50;6.95;;;9.40;99.90;;;;;;6217483;22;20021;-79
2022/02/14 10:25:35;;;;;;;7.97;6.55;;;9.40;99.90;;;;;;6241369;22;20065;-79
2022/02/14 10:28:19;;;;;;;7.97;6.57;;;9.40;99.90;;;;;;6218066;22;20440;-80
2022/02/14 10:31:06;;;;;;;9.50;7.03;;;9.50;99.90;;;;;;6243785;22;20039;-79
2022/02/14 10:33:55;;;;;;;8.10;7.20;;;9.60;99.90;;;;;;6218379;22;20468;-80
2022/02/14 10:36:31;;;;;;;7.05;6.13;;;9.70;99.90;;;;;;6243919;22;20015;-80
2022/02/14 10:39:28;;;;;;;8.27;6.07;;;9.80;99.90;;;;;;6192564;22;20019;-81
2022/02/14 10:42:05;;;;;;;6.70;5.60;;;9.80;99.90;;;;;;6199489;22;20018;-80
2022/02/14 10:47:26;;;;;;;6.85;5.00;;;9.90;99.90;;;;;;6243712;22;20544;-81
2022/02/14 10:50:05;;;;;;;6.68;4.97;;;9.80;99.90;;;;;;6217759;22;20482;-81
2022/02/14 10:52:35;;;;;;;6.80;5.82;;;9.90;99.90;;;;;;6217748;22;20015;-80
2022/02/14 10:55:02;;;;;;;8.02;6.00;;;9.80;99.90;;;;;;6241696;22;20016;-80
2022/02/14 10:57:30;;;;;;;6.43;5.72;;;9.80;99.90;;;;;;6168135;22;20051;-78
2022/02/14 11:00:08;;;;;;;7.05;5.65;;;9.90;99.90;;;;;;6217502;22;20243;-79
2022/02/14 11:02:35;;;;;;;8.00;5.63;;;9.90;99.90;;;;;;6217204;22;20031;-79
2022/02/14 11:05:03;;;;;;;8.05;5.63;;;9.90;99.90;;;;;;6192078;22;20344;-80
2022/02/14 11:07:29;;;;;;;6.82;6.00;;;9.90;99.90;;;;;;6216986;22;20158;-80
2022/02/14 11:09:57;;;;;;;7.57;6.18;;;9.90;99.90;;;;;;6217144;22;20016;-84
2022/02/14 11:12:24;;;;;;;7.88;5.75;;;9.90;99.90;;;;;;6192092;22;20008;-82
2022/02/14 11:14:55;;;;;;;6.78;5.97;;;9.80;99.90;;;;;;6216830;22;20019;-82
2022/02/14 11:17:32;;;;;;;8.60;6.85;;;9.80;99.90;;;;;;6217680;22;20024;-82
2022/02/14 11:20:03;;;;;;;11.43;6.50;;;9.80;99.90;;;;;;6216482;22;20106;-82
2022/02/14 11:22:32;;;;;;;7.50;6.47;;;9.90;99.90;;;;;;6216423;22;20020;-80
2022/02/14 11:25:29;;;;;;;8.35;6.63;;;9.90;99.90;;;;;;6216256;22;20221;-80
2022/02/14 11:28:01;;;;;;;9.20;7.05;;;10.00;99.90;;;;;;6217625;22;20019;-80
2022/02/14 11:30:30;;;;;;;6.72;5.95;;;10.10;99.90;;;;;;6218162;22;20020;-80
2022/02/14 11:33:13;;;;;;;6.07;5.32;;;10.20;99.90;;;;;;6218879;22;20378;-79
2022/02/14 11:35:57;;;;;;;7.35;6.15;;;10.20;99.90;;;;;;6219148;22;20024;-81
2022/02/14 11:38:50;;;;;;;6.95;5.40;;;10.10;99.90;;;;;;6218498;22;20019;-81
2022/02/14 11:41:36;;;;;;;8.07;5.93;;;10.10;99.90;;;;;;6209218;23;20016;-81
2022/02/14 11:44:11;;;;;;;7.05;5.47;;;10.00;99.90;;;;;;6239721;23;20016;-82
2022/02/14 11:46:42;;;;;;;7.28;5.70;;;10.00;99.90;;;;;;6238512;23;20056;-81
2022/02/14 11:49:10;;;;;;;7.25;5.57;;;10.00;99.90;;;;;;6213559;23;20399;-80
2022/02/14 11:51:41;;;;;;;7.13;5.40;;;10.00;99.90;;;;;;6238922;23;20031;-79
2022/02/14 11:54:31;;;;;;;6.55;5.88;;;10.00;99.90;;;;;;6189566;23;20073;-82
2022/02/14 11:57:23;;;;;;;5.88;5.13;;;10.10;99.90;;;;;;6213204;23;20428;-81
2022/02/14 11:59:51;;;;;;;5.57;4.57;;;10.10;99.90;;;;;;6241224;23;20496;-82
2022/02/14 12:02:30;;;;;;;6.95;4.95;;;10.10;99.90;;;;;;6214312;23;20559;-81
2022/02/14 12:04:56;;;;;;;7.60;4.43;;;10.20;99.90;;;;;;6213751;23;20023;-79
2022/02/14 12:07:33;;;;;;;6.05;4.60;;;10.20;99.90;;;;;;6213598;23;20099;-80
2022/02/14 12:09:59;;;;;;;6.78;5.35;;;10.20;99.90;;;;;;6239365;23;20016;-81
2022/02/14 12:12:46;;;;;;;6.95;4.97;;;10.30;99.90;;;;;;6214275;23;20019;-81
2022/02/14 12:20:58;;;;;;;5.78;3.60;;;10.40;99.90;;;;;;6238557;23;20350;-81
2022/02/14 12:23:29;;;;;;;4.85;3.00;;;10.40;99.90;;;;;;6238269;23;20034;-74
2022/02/14 12:25:56;;;;;;;6.88;3.17;;;10.40;99.90;;;;;;6212162;23;20023;-79
2022/02/14 12:28:23;;;;;;;5.35;2.75;;;10.40;99.90;;;;;;6214517;23;20019;-81
2022/02/14 12:30:50;;;;;;;7.43;3.15;;;10.50;99.90;;;;;;6214022;23;20016;-79
2022/02/14 12:33:16;;;;;;;4.68;2.63;;;10.60;99.90;;;;;;6189206;23;20048;-80
2022/02/14 12:35:47;;;;;;;4.53;2.47;;;10.60;99.90;;;;;;6212435;23;20016;-81
2022/02/14 12:38:14;;;;;;;5.78;2.00;;;10.70;99.90;;;;;;6238435;23;20457;-80
2022/02/14 12:40:51;;;;;;;4.43;2.15;;;10.70;99.90;;;;;;6217061;22;20043;-81
2022/02/14 12:43:28;;;;;;;3.17;1.20;;;10.70;99.90;;;;;;6243979;22;20020;-81
2022/02/14 12:46:11;;;;;;;4.20;1.35;;;10.60;99.90;;;;;;6218395;22;20102;-84
2022/02/14 12:48:47;;;;;;;4.93;1.10;;;10.60;99.90;;;;;;6243262;22;20019;-81
2022/02/14 12:51:12;;;;;;;3.10;1.10;;;10.50;99.90;;;;;;6217722;22;20019;-82
2022/02/14 12:53:47;;;;;;;4.53;1.33;;;10.60;99.90;;;;;;6217932;22;20516;-80
2022/02/14 12:56:32;;;;;;;6.65;1.00;;;10.50;99.90;;;;;;6243515;22;20024;-81
2022/02/14 12:59:11;;;;;;;5.03;1.65;;;10.50;99.90;;;;;;6243775;22;20062;-81
2022/02/14 13:01:45;;;;;;;3.20;1.42;;;10.40;99.90;;;;;;6218523;22;20031;-82
2022/02/14 13:04:18;;;;;;;4.80;2.03;;;10.30;99.90;;;;;;6243854;22;20047;-83